Time;durP1;ratioP1;P1;durP2;ratioP2;P2;SDS_P1;SDS_P2;PMS_P1;PMS_P2;Temp;Humidity;BMP_temperature;BMP_pressure;BME280_temperature;BME280_humidity;BME280_pressure;Samples;Min_cycle;Max_cycle;Signal;HPM_P1;HPM_P2
2021/11/11 00:00:53;;;;;;;0.00;0.00;;;;;;;3.02;72.95;100777.66;5112177;28;20068;-74
2021/11/11 00:03:19;;;;;;;0.00;0.00;;;;;;;2.95;73.60;100760.91;5111886;28;20031;-74
2021/11/11 00:05:45;;;;;;;0.00;0.00;;;;;;;3.00;73.31;100775.22;5113526;28;20046;-73
2021/11/11 00:08:11;;;;;;;0.00;0.00;;;;;;;3.00;72.99;100767.28;5113341;28;20020;-73
2021/11/11 00:10:39;;;;;;;0.00;0.00;;;;;;;3.04;73.01;100780.97;5113349;28;20213;-73
2021/11/11 00:13:04;;;;;;;0.00;0.00;;;;;;;2.99;72.74;100767.44;5113079;28;20067;-73
2021/11/11 00:15:31;;;;;;;0.00;0.00;;;;;;;2.99;72.63;100762.16;5113185;28;20082;-74
2021/11/11 00:17:57;;;;;;;0.00;0.00;;;;;;;3.02;73.78;100762.63;5112936;27;20107;-74
2021/11/11 00:20:24;;;;;;;0.00;0.00;;;;;;;2.97;74.25;100750.97;5113050;28;20043;-72
2021/11/11 00:22:51;;;;;;;0.00;0.00;;;;;;;3.08;74.23;100762.91;5113207;28;20129;-75
2021/11/11 00:25:19;;;;;;;0.00;0.00;;;;;;;3.03;73.65;100758.97;5111683;28;20035;-73
2021/11/11 00:27:45;;;;;;;0.00;0.00;;;;;;;3.14;74.79;100770.09;5112780;28;20023;-74
2021/11/11 00:30:13;;;;;;;0.00;0.00;;;;;;;3.12;75.61;100770.25;5112514;28;20102;-73
2021/11/11 00:32:39;;;;;;;0.00;0.00;;;;;;;3.10;75.81;100764.38;5112846;28;20028;-73
2021/11/11 00:35:15;;;;;;;0.00;0.00;;;;;;;3.18;75.56;100766.06;5112945;28;20118;-77
2021/11/11 00:37:41;;;;;;;0.00;0.00;;;;;;;3.10;75.51;100751.16;5111359;28;20042;-72
2021/11/11 00:40:08;;;;;;;0.00;0.00;;;;;;;3.17;74.47;100759.97;5111303;28;20402;-73
2021/11/11 00:42:33;;;;;;;0.00;0.00;;;;;;;3.12;74.26;100749.13;5112117;28;20027;-71
2021/11/11 00:44:59;;;;;;;0.00;0.00;;;;;;;3.08;74.11;100733.84;5112275;28;20047;-72
2021/11/11 00:47:24;;;;;;;0.00;0.00;;;;;;;3.17;73.74;100756.50;5112027;28;20093;-72
2021/11/11 00:49:50;;;;;;;0.00;0.00;;;;;;;3.07;73.58;100733.00;5111426;28;20024;-72
2021/11/11 00:52:16;;;;;;;0.00;0.00;;;;;;;3.11;73.35;100742.19;5112259;28;20080;-72
2021/11/11 00:54:43;;;;;;;0.00;0.00;;;;;;;3.07;73.30;100740.13;5112553;28;20038;-72
2021/11/11 00:57:10;;;;;;;0.00;0.00;;;;;;;2.98;73.03;100732.28;5112334;28;20027;-73
2021/11/11 00:59:36;;;;;;;0.00;0.00;;;;;;;2.91;73.16;100718.16;5112015;28;20031;-74
2021/11/11 01:02:07;;;;;;;0.00;0.00;;;;;;;2.95;72.58;100739.75;5111848;28;20103;-74
2021/11/11 01:04:33;;;;;;;0.00;0.00;;;;;;;2.92;72.92;100740.94;5111112;28;20034;-73
2021/11/11 01:06:58;;;;;;;0.00;0.00;;;;;;;2.84;73.12;100726.00;5111598;28;20453;-74
2021/11/11 01:09:23;;;;;;;0.00;0.00;;;;;;;2.74;72.96;100714.91;5112104;28;20034;-73
2021/11/11 01:11:49;;;;;;;0.00;0.00;;;;;;;2.79;72.68;100731.00;5112302;28;20027;-73
2021/11/11 01:14:16;;;;;;;0.00;0.00;;;;;;;2.73;73.20;100731.75;5111736;28;20511;-71
2021/11/11 01:16:42;;;;;;;0.00;0.00;;;;;;;2.64;72.70;100709.88;5111674;27;20438;-71
2021/11/11 01:19:07;;;;;;;0.00;0.00;;;;;;;2.68;73.14;100726.19;5111461;28;20053;-74
2021/11/11 01:21:33;;;;;;;0.32;0.32;;;;;;;2.63;73.26;100726.72;5110852;28;20028;-73
2021/11/11 01:23:58;;;;;;;0.00;0.00;;;;;;;2.61;73.84;100726.09;5111408;28;20031;-73
2021/11/11 01:26:23;;;;;;;0.00;0.00;;;;;;;2.53;73.53;100713.78;5112404;28;20031;-73
2021/11/11 01:28:49;;;;;;;0.00;0.00;;;;;;;2.50;73.61;100710.69;5111649;28;20043;-72
2021/11/11 01:31:14;;;;;;;0.00;0.00;;;;;;;2.41;74.06;100702.03;5109727;28;20031;-72
2021/11/11 01:33:40;;;;;;;0.00;0.00;;;;;;;2.43;74.52;100713.25;5111983;28;20084;-71
2021/11/11 01:36:06;;;;;;;0.00;0.00;;;;;;;2.43;74.08;100713.25;5111225;28;20035;-72
2021/11/11 01:38:31;;;;;;;0.00;0.00;;;;;;;2.42;74.58;100710.78;5112170;28;20548;-72
2021/11/11 01:40:57;;;;;;;0.00;0.00;;;;;;;2.36;74.19;100715.78;5110303;28;20032;-71
2021/11/11 01:43:23;;;;;;;0.00;0.00;;;;;;;2.29;74.33;100719.34;5111311;28;20035;-72
2021/11/11 01:45:48;;;;;;;0.00;0.00;;;;;;;2.20;74.71;100702.75;5111614;28;20398;-73
2021/11/11 01:48:15;;;;;;;0.00;0.00;;;;;;;2.17;74.97;100708.38;5110273;28;20118;-73
2021/11/11 01:50:43;;;;;;;0.00;0.00;;;;;;;2.19;75.29;100714.31;5111830;28;20058;-74
2021/11/11 01:53:10;;;;;;;0.00;0.00;;;;;;;2.19;75.59;100717.75;5109962;28;20509;-74
2021/11/11 01:55:40;;;;;;;0.00;0.00;;;;;;;2.17;75.46;100727.69;5110278;28;20088;-74
2021/11/11 01:58:06;;;;;;;0.00;0.00;;;;;;;2.14;75.92;100717.47;5111228;28;20103;-74
2021/11/11 02:00:35;;;;;;;0.00;0.00;;;;;;;2.16;76.37;100714.66;5111996;28;20103;-73
2021/11/11 02:03:03;;;;;;;0.00;0.00;;;;;;;2.07;76.05;100701.53;5111027;28;20032;-75
2021/11/11 02:05:30;;;;;;;0.00;0.00;;;;;;;2.13;75.98;100707.13;5109832;28;20027;-74
2021/11/11 02:07:56;;;;;;;0.00;0.00;;;;;;;2.06;76.34;100701.72;5109972;28;20050;-78
2021/11/11 02:10:24;;;;;;;0.00;0.00;;;;;;;2.08;76.80;100699.72;5110237;28;20123;-72
2021/11/11 02:12:50;;;;;;;0.00;0.00;;;;;;;2.08;76.49;100705.00;5111252;28;20084;-71
2021/11/11 02:15:17;;;;;;;0.00;0.00;;;;;;;2.12;76.34;100702.84;5109959;28;20027;-72
2021/11/11 02:17:44;;;;;;;0.00;0.00;;;;;;;2.02;76.56;100692.53;5109605;28;20107;-74
2021/11/11 02:20:11;;;;;;;0.00;0.00;;;;;;;2.12;76.66;100697.56;5109031;28;20469;-73
2021/11/11 02:22:38;;;;;;;0.00;0.00;;;;;;;2.11;76.51;100693.25;5111307;28;20020;-73
2021/11/11 02:25:11;;;;;;;0.00;0.00;;;;;;;2.01;76.40;100675.06;5110905;28;20082;-73
2021/11/11 02:27:38;;;;;;;0.00;0.00;;;;;;;1.96;76.77;100666.84;5109322;28;20031;-71
2021/11/11 02:30:09;;;;;;;0.00;0.00;;;;;;;2.06;76.63;100684.06;5110876;28;20035;-71
2021/11/11 02:32:36;;;;;;;0.00;0.00;;;;;;;2.12;76.57;100703.63;5110870;28;20042;-76
2021/11/11 02:35:04;;;;;;;0.00;0.00;;;;;;;2.17;76.78;100706.59;5109870;28;20047;-75
2021/11/11 02:37:30;;;;;;;0.00;0.00;;;;;;;2.15;76.96;100694.53;5110141;28;20024;-75
2021/11/11 02:39:57;;;;;;;0.00;0.00;;;;;;;2.14;76.64;100698.19;5110723;28;20262;-74
2021/11/11 02:42:23;;;;;;;0.00;0.00;;;;;;;2.09;76.48;100693.47;5109560;28;20024;-76
2021/11/11 02:44:49;;;;;;;0.00;0.00;;;;;;;2.08;76.45;100682.06;5109538;28;20555;-75
2021/11/11 02:47:15;;;;;;;0.00;0.00;;;;;;;2.08;75.95;100687.34;5109586;28;20028;-79
2021/11/11 02:49:40;;;;;;;0.00;0.00;;;;;;;2.07;75.87;100684.88;5109971;28;20043;-79
2021/11/11 02:52:07;;;;;;;0.00;0.00;;;;;;;1.99;75.81;100664.69;5109631;28;20024;-75
2021/11/11 02:54:38;;;;;;;0.00;0.00;;;;;;;2.04;75.67;100666.78;5109792;28;20020;-75
2021/11/11 02:57:27;;;;;;;0.00;0.00;;;;;;;2.00;76.02;100663.69;5111041;28;20024;-74
2021/11/11 02:59:56;;;;;;;0.00;0.00;;;;;;;2.00;75.93;100663.69;5098397;28;20035;-75
2021/11/11 03:02:24;;;;;;;;;;;;;;;2.02;75.50;100666.13;5109548;28;20505;-74
2021/11/11 03:04:50;;;;;;;0.00;0.00;;;;;;;1.96;75.93;100657.09;5109778;28;20002;-76
2021/11/11 03:07:16;;;;;;;0.00;0.00;;;;;;;1.94;75.87;100651.19;5109396;28;20066;-77
2021/11/11 03:09:45;;;;;;;0.03;0.03;;;;;;;1.88;76.03;100642.19;5109780;28;20024;-75
2021/11/11 03:12:12;;;;;;;0.00;0.00;;;;;;;1.92;76.23;100661.13;5108983;28;20036;-78
2021/11/11 03:14:38;;;;;;;0.17;0.17;;;;;;;1.90;76.51;100656.03;5109374;28;20020;-77
2021/11/11 03:17:04;;;;;;;0.57;0.57;;;;;;;1.91;76.39;100649.72;5109325;28;20114;-76
2021/11/11 03:19:32;;;;;;;0.00;0.00;;;;;;;1.91;76.17;100651.56;5113995;28;20074;-75
2021/11/11 03:21:57;;;;;;;0.00;0.00;;;;;;;1.87;76.46;100645.81;5114036;28;20027;-79
2021/11/11 03:24:23;;;;;;;0.00;0.00;;;;;;;1.67;76.58;100613.88;5113083;28;20451;-78
2021/11/11 03:26:48;;;;;;;0.00;0.00;;;;;;;1.80;76.60;100642.25;5112912;28;20028;-80
2021/11/11 03:29:14;;;;;;;0.00;0.00;;;;;;;1.79;76.93;100631.88;5114677;28;20491;-77
2021/11/11 03:31:39;;;;;;;0.00;0.00;;;;;;;1.77;76.61;100624.16;5112752;28;20019;-76
2021/11/11 03:34:05;;;;;;;0.00;0.00;;;;;;;1.77;76.87;100624.16;5113201;28;20028;-76
2021/11/11 03:36:30;;;;;;;0.00;0.00;;;;;;;1.76;76.93;100625.16;5118323;28;20035;-79
2021/11/11 03:38:56;;;;;;;0.00;0.00;;;;;;;1.71;77.35;100632.75;5118374;28;20028;-78
2021/11/11 03:41:21;;;;;;;0.00;0.00;;;;;;;1.56;77.56;100601.09;5112539;28;20026;-78
2021/11/11 03:43:47;;;;;;;0.00;0.00;;;;;;;1.67;77.61;100623.56;5112504;28;20019;-78
2021/11/11 03:46:13;;;;;;;0.00;0.00;;;;;;;1.65;78.08;100626.41;5112131;28;20052;-77
2021/11/11 03:48:39;;;;;;;0.00;0.00;;;;;;;1.53;78.14;100612.00;5112692;28;20027;-78
2021/11/11 03:51:05;;;;;;;0.00;0.00;;;;;;;1.62;78.06;100620.66;5112432;28;20045;-80
2021/11/11 03:53:31;;;;;;;0.00;0.00;;;;;;;1.63;77.79;100617.03;5112385;28;20143;-76
2021/11/11 03:55:57;;;;;;;0.00;0.00;;;;;;;1.62;78.35;100620.66;5113648;28;20537;-75
2021/11/11 03:58:23;;;;;;;0.00;0.00;;;;;;;1.57;78.09;100613.28;5111355;28;20034;-75
2021/11/11 04:00:48;;;;;;;0.00;0.00;;;;;;;1.52;77.83;100605.09;5112479;28;20027;-75
2021/11/11 04:03:14;;;;;;;0.00;0.00;;;;;;;1.49;78.02;100601.00;5109624;28;20114;-74
2021/11/11 04:05:40;;;;;;;0.00;0.00;;;;;;;1.53;77.56;100602.25;5113964;28;20024;-76
2021/11/11 04:08:05;;;;;;;0.00;0.00;;;;;;;1.62;77.69;100618.81;5111798;28;20036;-76
2021/11/11 04:10:31;;;;;;;0.00;0.00;;;;;;;1.60;78.25;100610.28;5113109;28;20028;-76
2021/11/11 04:13:00;;;;;;;0.00;0.00;;;;;;;1.62;78.03;100616.19;5111617;28;20055;-74
2021/11/11 04:15:25;;;;;;;0.00;0.00;;;;;;;1.55;78.27;100608.19;5111941;28;20582;-76
2021/11/11 04:17:51;;;;;;;0.00;0.00;;;;;;;1.58;77.93;100609.66;5112071;28;20051;-75
2021/11/11 04:20:17;;;;;;;0.00;0.00;;;;;;;1.59;78.21;100611.28;5111882;28;20034;-75
2021/11/11 04:22:42;;;;;;;0.00;0.00;;;;;;;1.49;78.11;100589.59;5111917;28;20027;-74
2021/11/11 04:25:15;;;;;;;0.00;0.00;;;;;;;1.58;77.86;100597.28;5113063;28;20057;-74
2021/11/11 04:28:04;;;;;;;0.00;0.00;;;;;;;1.49;78.25;100585.16;5111198;28;20092;-72
2021/11/11 04:30:34;;;;;;;0.00;0.00;;;;;;;1.51;78.22;100588.44;5111795;28;20040;-75
2021/11/11 04:33:01;;;;;;;0.00;0.00;;;;;;;1.60;78.33;100608.47;5112560;28;20032;-76
2021/11/11 04:35:27;;;;;;;0.00;0.00;;;;;;;1.62;78.50;100596.94;5111685;28;20032;-75
2021/11/11 04:41:00;;;;;;;0.00;0.00;;;;;;;1.50;78.42;100580.69;5112632;28;20164;-74
2021/11/11 04:59:56;;;;;;;0.00;0.00;;;;;;;1.57;78.12;100590.34;5056570;28;20121;-75
2021/11/11 05:05:22;;;;;;;0.00;0.00;;;;;;;1.60;78.61;100583.94;5048835;28;20028;-74
2021/11/11 05:07:49;;;;;;;0.00;0.00;;;;;;;1.61;78.70;100585.53;5098087;28;20043;-76
2021/11/11 05:10:16;;;;;;;0.00;0.00;;;;;;;1.62;78.59;100586.38;5112019;28;20027;-75
2021/11/11 05:12:41;;;;;;;0.00;0.00;;;;;;;1.63;78.84;100582.75;5110938;28;20020;-85
2021/11/11 05:15:07;;;;;;;0.00;0.00;;;;;;;1.68;79.10;100591.75;5109558;28;20035;-76
2021/11/11 05:17:33;;;;;;;0.00;0.00;;;;;;;1.73;78.83;100593.84;5109635;28;20475;-76
2021/11/11 05:19:58;;;;;;;0.00;0.00;;;;;;;1.65;79.31;100575.44;5109860;28;20137;-72
2021/11/11 05:22:25;;;;;;;0.00;0.00;;;;;;;1.86;79.31;100596.69;5111334;28;20497;-73
2021/11/11 05:24:50;;;;;;;0.00;0.00;;;;;;;1.91;78.83;100596.97;5110821;28;20040;-75
2021/11/11 05:27:19;;;;;;;0.00;0.00;;;;;;;1.97;78.93;100594.63;5111189;28;20158;-75
2021/11/11 05:29:45;;;;;;;;;;;;;;;2.08;79.22;100602.09;5112981;28;20050;-75
2021/11/11 05:32:10;;;;;;;0.03;0.03;;;;;;;2.13;79.12;100599.72;5110778;28;19908;-75
2021/11/11 05:34:36;;;;;;;0.00;0.00;;;;;;;2.21;78.58;100590.88;5111714;28;20020;-75
2021/11/11 05:37:02;;;;;;;0.00;0.00;;;;;;;2.31;78.76;100599.34;5111525;28;20027;-75
2021/11/11 05:39:27;;;;;;;0.00;0.00;;;;;;;2.43;78.82;100598.88;5110372;28;20076;-74
2021/11/11 05:41:53;;;;;;;0.00;0.00;;;;;;;2.47;77.95;100579.03;5111050;28;20111;-74
2021/11/11 05:44:18;;;;;;;0.00;0.00;;;;;;;2.65;77.70;100589.19;5109642;28;20047;-74
2021/11/11 05:46:44;;;;;;;0.00;0.00;;;;;;;2.76;77.83;100593.16;5110480;28;20462;-73
2021/11/11 05:49:09;;;;;;;0.00;0.00;;;;;;;2.80;77.45;100576.75;5111013;28;20493;-74
2021/11/11 05:51:34;;;;;;;0.00;0.00;;;;;;;2.93;76.64;100572.63;5111473;28;20489;-74
2021/11/11 05:54:00;;;;;;;0.00;0.00;;;;;;;3.15;76.69;100597.25;5111581;28;20087;-74
2021/11/11 05:56:25;;;;;;;0.00;0.00;;;;;;;3.29;75.78;100595.56;5111495;28;20027;-75
2021/11/11 05:58:51;;;;;;;0.00;0.00;;;;;;;3.32;75.75;100577.47;5111191;28;20024;-74
2021/11/11 06:01:16;;;;;;;0.03;0.03;;;;;;;3.53;75.13;100595.16;5111167;28;20456;-75
2021/11/11 06:03:42;;;;;;;0.00;0.00;;;;;;;3.56;75.09;100571.97;5111285;28;20019;-73
2021/11/11 06:06:07;;;;;;;0.00;0.00;;;;;;;3.72;74.85;100581.44;5111266;28;20030;-75
2021/11/11 06:08:32;;;;;;;0.00;0.00;;;;;;;3.78;74.34;100575.38;5110052;28;20053;-74
2021/11/11 06:10:58;;;;;;;0.00;0.00;;;;;;;3.87;74.58;100582.19;5109384;28;20020;-74
2021/11/11 06:13:24;;;;;;;0.00;0.00;;;;;;;3.95;75.16;100589.94;5111636;28;20032;-74
2021/11/11 06:15:51;;;;;;;0.08;0.08;;;;;;;4.08;75.01;100586.56;5110061;28;20027;-75
2021/11/11 06:18:18;;;;;;;0.00;0.00;;;;;;;4.10;74.90;100573.13;5109716;28;20035;-74
2021/11/11 06:20:49;;;;;;;0.00;0.00;;;;;;;4.24;74.84;100585.44;5109873;28;20487;-74
2021/11/11 06:23:15;;;;;;;0.00;0.00;;;;;;;4.36;74.54;100576.94;5109424;28;20031;-75
2021/11/11 06:25:41;;;;;;;0.00;0.00;;;;;;;4.38;75.00;100569.59;5111237;28;20467;-75
2021/11/11 06:28:08;;;;;;;0.00;0.00;;;;;;;4.57;74.60;100589.25;5109887;28;20126;-75
2021/11/11 06:30:34;;;;;;;0.00;0.00;;;;;;;4.66;74.41;100585.41;5111331;28;20023;-75
2021/11/11 06:33:00;;;;;;;0.00;0.00;;;;;;;4.83;74.09;100590.38;5110998;28;20034;-76
2021/11/11 06:35:30;;;;;;;0.00;0.00;;;;;;;4.88;73.62;100575.50;5109817;28;20118;-74
2021/11/11 06:37:57;;;;;;;0.00;0.00;;;;;;;5.01;73.30;100568.59;5111037;28;20081;-74
2021/11/11 06:40:23;;;;;;;0.40;0.40;;;;;;;5.14;73.26;100579.22;5109939;28;20126;-75
2021/11/11 06:42:48;;;;;;;0.00;0.00;;;;;;;5.25;73.25;100588.41;5109690;28;20115;-75
2021/11/11 06:45:15;;;;;;;0.00;0.00;;;;;;;5.31;73.14;100578.81;5109380;28;20048;-75
2021/11/11 06:47:41;;;;;;;0.15;0.15;;;;;;;5.47;72.62;100588.19;5110215;28;20467;-75
2021/11/11 06:50:08;;;;;;;0.00;0.00;;;;;;;5.51;72.46;100571.69;5110891;28;20024;-76
2021/11/11 06:52:34;;;;;;;0.00;0.00;;;;;;;5.68;71.71;100587.19;5111588;28;20066;-75
2021/11/11 06:55:00;;;;;;;0.70;0.55;;;;;;;5.81;72.03;100589.84;5115247;28;20098;-75
2021/11/11 06:57:25;;;;;;;0.00;0.00;;;;;;;5.87;71.61;100575.72;5113596;28;20163;-74
2021/11/11 06:59:51;;;;;;;0.00;0.00;;;;;;;6.01;70.81;100573.09;5115229;28;20031;-75
2021/11/11 07:02:16;;;;;;;1.35;1.27;;;;;;;6.09;71.38;100578.16;5113251;28;20015;-76
2021/11/11 07:04:42;;;;;;;0.00;0.00;;;;;;;6.20;71.93;100582.00;5115101;28;20024;-74
2021/11/11 07:07:08;;;;;;;0.00;0.00;;;;;;;6.22;70.56;100572.81;5113221;28;20031;-76
2021/11/11 07:09:33;;;;;;;0.00;0.00;;;;;;;6.27;70.30;100574.03;5114407;28;20016;-75
2021/11/11 07:11:59;;;;;;;0.30;0.30;;;;;;;6.32;69.15;100574.22;5113099;28;20432;-74
2021/11/11 07:14:25;;;;;;;0.08;0.08;;;;;;;6.30;69.13;100558.50;5115313;28;20116;-76
2021/11/11 07:16:51;;;;;;;0.40;0.40;;;;;;;6.44;69.46;100566.41;5113939;28;20024;-76
2021/11/11 07:19:17;;;;;;;0.00;0.00;;;;;;;6.55;70.37;100565.75;5112778;28;20123;-76
2021/11/11 07:21:42;;;;;;;0.35;0.35;;;;;;;6.52;68.98;100553.69;5113247;28;20114;-74
2021/11/11 07:24:08;;;;;;;0.00;0.00;;;;;;;6.65;68.69;100566.13;5113718;28;20031;-76
2021/11/11 07:26:33;;;;;;;0.10;0.10;;;;;;;6.68;68.72;100549.72;5114483;28;20077;-75
2021/11/11 07:28:59;;;;;;;0.00;0.00;;;;;;;6.82;68.35;100563.78;5114049;28;20019;-75
2021/11/11 07:31:25;;;;;;;0.00;0.00;;;;;;;6.81;69.15;100556.00;5114372;28;20031;-78
2021/11/11 07:33:53;;;;;;;0.00;0.00;;;;;;;6.84;68.96;100548.41;5113525;28;20030;-75
2021/11/11 07:36:18;;;;;;;0.00;0.00;;;;;;;6.82;68.73;100553.13;5112725;28;20088;-75
2021/11/11 07:38:44;;;;;;;0.00;0.00;;;;;;;6.89;69.48;100556.53;5113713;28;20406;-75
2021/11/11 07:41:09;;;;;;;0.00;0.00;;;;;;;6.93;68.77;100548.94;5112421;28;20126;-76
2021/11/11 07:43:36;;;;;;;0.00;0.00;;;;;;;6.93;67.82;100542.84;5112506;28;20019;-75
2021/11/11 07:46:05;;;;;;;0.00;0.00;;;;;;;6.95;68.51;100538.13;5113848;28;20043;-76
2021/11/11 07:48:30;;;;;;;0.10;0.10;;;;;;;6.99;68.52;100547.28;5112591;28;20027;-75
2021/11/11 07:50:58;;;;;;;0.10;0.10;;;;;;;6.98;68.98;100541.16;5112475;28;20027;-74
2021/11/11 07:53:23;;;;;;;0.00;0.00;;;;;;;6.91;69.13;100524.44;5112558;28;20592;-74
2021/11/11 07:55:49;;;;;;;0.00;0.00;;;;;;;6.95;68.72;100535.47;5113697;28;20024;-74
2021/11/11 08:36:56;;;;;;;2.20;0.73;;;;;;;7.05;67.74;100495.88;5112815;28;20123;-74
2021/11/11 08:39:21;;;;;;;0.00;0.00;;;;;;;7.16;67.98;100503.16;5112640;28;20047;-74
2021/11/11 08:41:49;;;;;;;4.20;1.33;;;;;;;7.16;67.88;100494.38;5111204;28;20059;-75
2021/11/11 08:44:15;;;;;;;0.10;0.10;;;;;;;7.22;67.58;100506.81;5111298;28;20028;-75
2021/11/11 08:46:40;;;;;;;0.10;0.10;;;;;;;7.29;67.87;100504.09;5111664;28;20513;-74
2021/11/11 08:49:06;;;;;;;0.00;0.00;;;;;;;7.24;67.59;100479.97;5112530;28;20035;-74
2021/11/11 08:51:34;;;;;;;0.00;0.00;;;;;;;7.31;67.58;100497.53;5113088;28;20027;-74
2021/11/11 08:54:03;;;;;;;0.00;0.00;;;;;;;7.29;67.24;100475.63;5111121;28;20118;-74
2021/11/11 08:56:30;;;;;;;0.08;0.08;;;;;;;7.35;67.83;100477.41;5111300;28;20034;-74
2021/11/11 08:59:00;;;;;;;0.00;0.00;;;;;;;7.32;67.18;100474.38;5112026;28;20031;-74
2021/11/11 09:01:27;;;;;;;0.15;0.15;;;;;;;7.34;67.00;100469.66;5111141;28;20549;-74
2021/11/11 09:03:54;;;;;;;0.00;0.00;;;;;;;7.42;67.57;100466.72;5112234;28;20028;-74
2021/11/11 09:06:20;;;;;;;0.00;0.00;;;;;;;7.50;67.11;100476.25;5112151;28;20020;-73
2021/11/11 09:08:46;;;;;;;0.00;0.00;;;;;;;7.49;67.13;100459.47;5112122;28;20031;-73
2021/11/11 09:11:11;;;;;;;0.57;0.43;;;;;;;7.56;67.18;100461.25;5110820;28;20080;-74
2021/11/11 09:13:37;;;;;;;0.00;0.00;;;;;;;7.60;67.03;100468.56;5111017;28;20031;-75
2021/11/11 09:16:03;;;;;;;0.00;0.00;;;;;;;7.62;67.45;100453.19;5111595;28;20020;-75
2021/11/11 09:18:30;;;;;;;0.03;0.03;;;;;;;7.76;66.98;100459.16;5111754;28;20030;-74
2021/11/11 09:20:55;;;;;;;0.10;0.10;;;;;;;7.82;66.56;100462.81;5110589;28;20039;-74
2021/11/11 09:23:21;;;;;;;0.80;0.80;;;;;;;7.84;66.86;100448.22;5112107;28;20031;-73
2021/11/11 09:25:48;;;;;;;0.00;0.00;;;;;;;7.90;67.29;100446.53;5110768;28;20020;-73
2021/11/11 09:28:14;;;;;;;0.10;0.10;;;;;;;7.94;66.38;100442.38;5111488;28;20460;-75
2021/11/11 09:30:40;;;;;;;0.00;0.00;;;;;;;7.95;66.03;100429.88;5110943;28;20066;-75
2021/11/11 09:33:07;;;;;;;0.00;0.00;;;;;;;8.08;65.89;100436.88;5112110;28;20490;-75
2021/11/11 09:35:33;;;;;;;0.10;0.10;;;;;;;8.01;65.38;100424.47;5111283;28;20031;-76
2021/11/11 09:37:59;;;;;;;0.10;0.10;;;;;;;7.99;65.32;100418.53;5110210;28;20027;-74
2021/11/11 09:40:27;;;;;;;0.00;0.00;;;;;;;8.07;66.51;100424.59;5111794;28;20098;-74
2021/11/11 09:42:55;;;;;;;0.00;0.00;;;;;;;7.99;65.50;100394.56;5111532;28;20038;-74
2021/11/11 09:45:25;;;;;;;0.00;0.00;;;;;;;8.14;66.21;100412.00;5110355;28;20430;-74
2021/11/11 09:47:52;;;;;;;0.00;0.00;;;;;;;8.12;65.70;100400.78;5111722;28;20071;-74
2021/11/11 09:50:20;;;;;;;0.00;0.00;;;;;;;8.15;64.59;100400.31;5111437;28;20045;-74
2021/11/11 09:52:48;;;;;;;0.15;0.15;;;;;;;8.14;65.69;100380.84;5110400;28;20031;-75
2021/11/11 10:00:44;;;;;;;0.20;0.20;;;;;;;8.56;64.68;100376.59;5111491;28;20043;-74
2021/11/11 10:03:10;;;;;;;1.45;0.50;;;;;;;8.45;64.26;100362.97;5109883;28;20101;-75
2021/11/11 10:05:35;;;;;;;0.00;0.00;;;;;;;8.55;64.69;100365.09;5111456;28;20138;-74
2021/11/11 10:08:04;;;;;;;0.00;0.00;;;;;;;8.58;64.38;100361.16;5111286;28;20019;-74
2021/11/11 10:10:38;;;;;;;0.00;0.00;;;;;;;8.61;63.56;100364.16;5111204;28;20034;-75
2021/11/11 10:13:18;;;;;;;0.00;0.00;;;;;;;8.63;63.12;100358.63;5110057;28;20066;-74
2021/11/11 10:16:04;;;;;;;0.05;0.05;;;;;;;8.61;62.18;100344.69;5109941;28;20501;-74
2021/11/11 10:18:40;;;;;;;0.28;0.28;;;;;;;8.60;62.98;100337.75;5112054;28;20027;-73
2021/11/11 10:22:01;;;;;;;0.00;0.00;;;;;;;8.66;63.27;100339.47;5111322;28;20111;-74
2021/11/11 10:27:43;;;;;;;0.00;0.00;;;;;;;8.81;63.44;100323.00;5112654;28;20114;-75
2021/11/11 10:30:19;;;;;;;0.00;0.00;;;;;;;8.78;62.23;100310.94;5113850;28;20076;-74
2021/11/11 10:32:48;;;;;;;0.00;0.00;;;;;;;8.87;62.71;100316.75;5114826;28;20043;-76
2021/11/11 10:35:32;;;;;;;0.10;0.10;;;;;;;8.84;62.91;100303.06;5113792;28;20173;-74
2021/11/11 10:38:04;;;;;;;0.20;0.20;;;;;;;8.81;61.65;100299.00;5113741;28;20409;-74
2021/11/11 10:40:36;;;;;;;0.43;0.43;;;;;;;8.89;61.94;100305.84;5115157;28;20077;-73
2021/11/11 10:43:11;;;;;;;0.08;0.08;;;;;;;8.92;62.47;100300.03;5114782;28;20069;-75
2021/11/11 10:45:43;;;;;;;0.20;0.20;;;;;;;9.02;62.80;100291.44;5114505;28;20124;-74
2021/11/11 10:48:11;;;;;;;0.45;0.45;;;;;;;9.05;61.75;100291.78;5114476;28;20030;-75
2021/11/11 10:50:40;;;;;;;0.00;0.00;;;;;;;9.02;61.08;100280.75;5115073;28;20062;-75
2021/11/11 10:53:08;;;;;;;0.00;0.00;;;;;;;9.03;61.19;100277.84;5113461;28;20399;-75
2021/11/11 10:55:36;;;;;;;0.00;0.00;;;;;;;9.05;61.18;100272.31;5113640;28;20093;-75
2021/11/11 10:58:11;;;;;;;0.03;0.03;;;;;;;9.03;60.79;100269.06;5114558;28;20274;-74
2021/11/11 11:00:56;;;;;;;0.50;0.50;;;;;;;9.04;60.03;100282.16;5114747;28;20517;-74
2021/11/11 11:03:31;;;;;;;2.17;0.85;;;;;;;9.04;59.82;100271.47;5114495;28;20101;-74
2021/11/11 11:06:16;;;;;;;0.90;0.88;;;;;;;9.08;59.74;100266.47;5113387;28;20490;-74
2021/11/11 11:08:52;;;;;;;0.30;0.30;;;;;;;9.08;60.00;100253.97;5114661;28;20039;-74
2021/11/11 11:11:28;;;;;;;0.00;0.00;;;;;;;9.18;58.61;100277.38;5113042;28;20020;-73
2021/11/11 11:13:57;;;;;;;0.00;0.00;;;;;;;9.16;58.65;100270.66;5113311;28;20425;-74
2021/11/11 11:16:27;;;;;;;0.08;0.08;;;;;;;9.13;59.12;100255.94;5114235;28;20016;-74
2021/11/11 11:19:03;;;;;;;0.00;0.00;;;;;;;9.13;58.93;100266.59;5112768;28;20042;-73
2021/11/11 11:21:39;;;;;;;0.65;0.65;;;;;;;9.17;59.50;100256.25;5113030;28;20024;-74
2021/11/11 11:24:08;;;;;;;0.00;0.00;;;;;;;9.29;59.52;100257.84;5112657;28;20027;-73
2021/11/11 11:26:56;;;;;;;0.00;0.00;;;;;;;9.36;58.14;100255.03;5114373;28;20123;-73
2021/11/11 11:29:41;;;;;;;0.10;0.10;;;;;;;9.37;57.92;100256.63;5113435;28;20028;-73
2021/11/11 11:32:21;;;;;;;0.10;0.10;;;;;;;9.38;55.80;100258.25;5114269;28;20390;-74
2021/11/11 11:34:49;;;;;;;15.02;1.23;;;;;;;9.15;54.88;100231.66;5114005;28;20019;-74
2021/11/11 11:37:21;;;;;;;0.47;0.47;;;;;;;9.26;54.61;100249.50;5113966;27;20034;-74
2021/11/11 11:39:56;;;;;;;0.38;0.38;;;;;;;9.23;55.73;100228.63;5111515;28;20028;-73
2021/11/11 11:42:24;;;;;;;0.13;0.13;;;;;;;9.32;56.15;100239.72;5112407;28;20036;-74
2021/11/11 11:44:59;;;;;;;1.27;1.23;;;;;;;9.31;55.72;100235.44;5113802;28;20406;-75
2021/11/11 11:47:52;;;;;;;0.73;0.73;;;;;;;9.30;56.17;100234.63;5112463;28;20031;-74
2021/11/11 11:50:28;;;;;;;0.00;0.00;;;;;;;9.24;57.64;100220.38;5113776;28;20039;-74
2021/11/11 11:53:02;;;;;;;0.10;0.10;;;;;;;9.24;57.91;100214.22;5112512;28;20084;-74
2021/11/11 12:08:22;;;;;;;0.30;0.30;;;;;;;9.51;57.89;100205.63;5113308;28;20031;-75
2021/11/11 12:13:56;;;;;;;0.00;0.00;;;;;;;9.56;56.47;100193.19;5113453;28;20032;-74
2021/11/11 12:39:37;;;;;;;0.70;0.70;;;;;;;9.69;58.56;100176.03;5112696;28;20038;-73
2021/11/11 12:42:23;;;;;;;0.45;0.45;;;;;;;9.67;58.21;100172.78;5112430;28;20091;-73
2021/11/11 12:45:04;;;;;;;0.00;0.00;;;;;;;9.71;57.27;100165.91;5112497;28;20054;-73
2021/11/11 12:47:41;;;;;;;0.00;0.00;;;;;;;9.76;57.09;100171.34;5111368;28;20019;-73
2021/11/11 12:50:44;;;;;;;0.00;0.00;;;;;;;9.80;57.42;100173.53;5112151;28;20471;-73
2021/11/11 12:53:12;;;;;;;0.32;0.32;;;;;;;9.85;57.84;100160.25;5110865;28;20034;-73
2021/11/11 12:55:38;;;;;;;;;;;;;;;9.89;57.99;100156.03;5112884;28;20030;-73
2021/11/11 12:58:06;;;;;;;0.32;0.32;;;;;;;9.89;57.34;100150.69;5112546;28;19912;-73
2021/11/11 13:00:37;;;;;;;0.10;0.10;;;;;;;9.95;57.99;100157.75;5112333;28;20024;-73
2021/11/11 13:03:03;;;;;;;0.00;0.00;;;;;;;9.98;57.53;100154.56;5112371;28;20024;-73
2021/11/11 13:05:48;;;;;;;0.00;0.00;;;;;;;9.96;57.08;100153.19;5112389;27;20019;-73
2021/11/11 13:08:22;;;;;;;0.03;0.03;;;;;;;9.88;56.70;100147.19;5110657;28;20027;-73
2021/11/11 13:10:55;;;;;;;0.10;0.10;;;;;;;9.92;57.56;100160.88;5112239;28;20035;-73
2021/11/11 13:13:30;;;;;;;2.65;1.02;;;;;;;9.87;57.33;100150.94;5111859;28;20031;-73
2021/11/11 13:16:13;;;;;;;0.00;0.00;;;;;;;9.82;57.58;100145.50;5112400;28;20076;-73
2021/11/11 13:18:50;;;;;;;0.00;0.00;;;;;;;9.84;57.43;100147.94;5110786;28;20019;-73
2021/11/11 13:21:31;;;;;;;0.00;0.00;;;;;;;9.90;58.16;100155.00;5111748;28;20024;-73
2021/11/11 13:24:51;;;;;;;0.05;0.05;;;;;;;9.94;58.27;100148.09;5111954;27;20043;-73
2021/11/11 14:03:15;;;;;;;1.80;0.38;;;;;;;9.91;56.34;100141.38;5110707;28;20104;-73
2021/11/11 16:25:35;;;;;;;0.10;0.10;;;;;;;8.74;62.75;100136.44;5101582;28;20024;-74